KSPS

Sheppard AFB / Wichita Falls Municipal Airport

Wichita Falls, Texas, USA
METAR KSPS 191252Z 19003KT 10SM CLR 21/19 A2996 RMK AO2 SLP131 T02110189
Observed Flight Rules
Sep-19 @ 12:52 UTC (32 minutes ago) Visual Flight Rules
Wind Visibility Clouds
190° at 3 knots 10 miles
  • Clear skies
Temperatures Readings
Current 21°C / 70°F
Dewpoint 19°C / 66°F
Humidity 88%
Altimeter 29.96" Hg
Pressure 1013.1 hPa
Elevation 308
METAR KSPS 191252Z 19003KT 10SM CLR 21/19 A2996 RMK AO2 SLP131 T02110189
Observed Flight Rules
Sep-19 @ 12:52 UTC
(32 minutes ago)
VFR
Wind Visibility
190° at 3 knots 10 miles
Clouds
  • Clear skies
Temperature Dewpoint
21°C / 70°F 19°C / 66°F
Humidity Altimeter Pressure
88% 29.96" Hg 1013.1 hPa